sensor_id;sensor_type;location;lat;lon;timestamp;pressure;altitude;pressure_sealevel;temperature;humidity
40872;BME280;26591;43.264;26.940;2023-02-12T00:02:07;99871.09;;;0.77;51.22
40872;BME280;26591;43.264;26.940;2023-02-12T00:04:33;99863.38;;;0.91;51.08
40872;BME280;26591;43.264;26.940;2023-02-12T00:06:58;99855.50;;;0.75;52.07
40872;BME280;26591;43.264;26.940;2023-02-12T00:09:24;99864.25;;;0.58;51.46
40872;BME280;26591;43.264;26.940;2023-02-12T00:11:50;99867.88;;;0.72;51.54
40872;BME280;26591;43.264;26.940;2023-02-12T00:14:16;99863.34;;;0.75;52.11
40872;BME280;26591;43.264;26.940;2023-02-12T00:16:41;99867.22;;;0.84;51.72
40872;BME280;26591;43.264;26.940;2023-02-12T00:19:08;99867.66;;;0.43;51.92
40872;BME280;26591;43.264;26.940;2023-02-12T00:21:33;99857.91;;;0.30;52.02
40872;BME280;26591;43.264;26.940;2023-02-12T00:24:02;99861.97;;;0.19;52.44
40872;BME280;26591;43.264;26.940;2023-02-12T00:26:30;99861.81;;;0.55;52.95
40872;BME280;26591;43.264;26.940;2023-02-12T00:28:56;99852.00;;;0.60;52.00
40872;BME280;26591;43.264;26.940;2023-02-12T00:31:26;99867.41;;;0.48;52.68
40872;BME280;26591;43.264;26.940;2023-02-12T00:33:52;99856.94;;;0.49;52.80
40872;BME280;26591;43.264;26.940;2023-02-12T00:36:21;99849.63;;;0.22;53.47
40872;BME280;26591;43.264;26.940;2023-02-12T00:38:49;99851.84;;;0.64;52.49
40872;BME280;26591;43.264;26.940;2023-02-12T00:41:15;99852.06;;;0.59;52.31
40872;BME280;26591;43.264;26.940;2023-02-12T00:43:40;99850.75;;;0.34;52.71
40872;BME280;26591;43.264;26.940;2023-02-12T00:46:06;99841.00;;;0.38;52.88
40872;BME280;26591;43.264;26.940;2023-02-12T00:48:33;99839.84;;;0.10;53.58
40872;BME280;26591;43.264;26.940;2023-02-12T00:50:59;99844.72;;;0.34;53.83
40872;BME280;26591;43.264;26.940;2023-02-12T00:53:25;99833.72;;;0.44;52.82
40872;BME280;26591;43.264;26.940;2023-02-12T00:55:50;99830.19;;;-0.04;53.76
40872;BME280;26591;43.264;26.940;2023-02-12T00:58:16;99829.56;;;0.24;53.18
40872;BME280;26591;43.264;26.940;2023-02-12T01:00:42;99838.81;;;0.30;53.18
40872;BME280;26591;43.264;26.940;2023-02-12T01:03:08;99827.28;;;0.52;53.08
40872;BME280;26591;43.264;26.940;2023-02-12T01:05:33;99831.34;;;-0.10;54.08
40872;BME280;26591;43.264;26.940;2023-02-12T01:07:59;99833.13;;;0.39;53.61
40872;BME280;26591;43.264;26.940;2023-02-12T01:10:25;99842.19;;;0.32;53.37
40872;BME280;26591;43.264;26.940;2023-02-12T01:12:50;99843.56;;;0.39;53.60
40872;BME280;26591;43.264;26.940;2023-02-12T01:15:17;99842.88;;;0.36;52.98
40872;BME280;26591;43.264;26.940;2023-02-12T01:17:43;99842.78;;;0.21;52.82
40872;BME280;26591;43.264;26.940;2023-02-12T01:20:12;99840.94;;;0.39;53.78
40872;BME280;26591;43.264;26.940;2023-02-12T01:22:37;99834.78;;;0.58;52.85
40872;BME280;26591;43.264;26.940;2023-02-12T01:25:04;99845.09;;;0.75;52.77
40872;BME280;26591;43.264;26.940;2023-02-12T01:27:31;99842.66;;;0.56;52.92
40872;BME280;26591;43.264;26.940;2023-02-12T01:29:59;99826.66;;;0.47;53.21
40872;BME280;26591;43.264;26.940;2023-02-12T01:32:25;99847.03;;;0.72;52.65
40872;BME280;26591;43.264;26.940;2023-02-12T01:34:50;99844.59;;;0.69;53.30
40872;BME280;26591;43.264;26.940;2023-02-12T01:37:16;99841.59;;;0.27;53.95
40872;BME280;26591;43.264;26.940;2023-02-12T01:39:41;99839.38;;;0.37;54.40
40872;BME280;26591;43.264;26.940;2023-02-12T01:42:11;99833.16;;;0.55;54.21
40872;BME280;26591;43.264;26.940;2023-02-12T01:44:43;99823.75;;;0.53;54.41
40872;BME280;26591;43.264;26.940;2023-02-12T01:47:17;99811.22;;;0.43;55.02
40872;BME280;26591;43.264;26.940;2023-02-12T01:49:45;99799.34;;;0.22;56.55
40872;BME280;26591;43.264;26.940;2023-02-12T01:52:28;99814.31;;;0.34;57.12
40872;BME280;26591;43.264;26.940;2023-02-12T01:54:57;99804.44;;;0.57;56.73
40872;BME280;26591;43.264;26.940;2023-02-12T01:57:27;99800.38;;;0.35;56.92
40872;BME280;26591;43.264;26.940;2023-02-12T01:59:55;99805.34;;;0.72;55.88
40872;BME280;26591;43.264;26.940;2023-02-12T02:02:22;99792.66;;;0.82;55.79
40872;BME280;26591;43.264;26.940;2023-02-12T02:04:56;99794.06;;;0.55;56.24
40872;BME280;26591;43.264;26.940;2023-02-12T02:07:23;99804.25;;;0.44;57.53
40872;BME280;26591;43.264;26.940;2023-02-12T02:09:49;99792.03;;;0.44;57.45
40872;BME280;26591;43.264;26.940;2023-02-12T02:12:15;99782.91;;;0.53;58.30
40872;BME280;26591;43.264;26.940;2023-02-12T02:15:00;99786.59;;;0.33;58.52
40872;BME280;26591;43.264;26.940;2023-02-12T02:30:46;99783.91;;;0.51;58.39
40872;BME280;26591;43.264;26.940;2023-02-12T02:34:07;99795.69;;;0.58;58.25
40872;BME280;26591;43.264;26.940;2023-02-12T02:39:24;99791.31;;;0.42;58.25
40872;BME280;26591;43.264;26.940;2023-02-12T02:42:10;99799.88;;;0.60;57.86
40872;BME280;26591;43.264;26.940;2023-02-12T02:44:51;99805.41;;;0.54;57.84
40872;BME280;26591;43.264;26.940;2023-02-12T02:47:20;99809.53;;;0.42;58.25
40872;BME280;26591;43.264;26.940;2023-02-12T02:49:59;99810.00;;;0.33;58.60
40872;BME280;26591;43.264;26.940;2023-02-12T02:52:34;99809.53;;;0.42;58.73
40872;BME280;26591;43.264;26.940;2023-02-12T02:55:06;99808.94;;;0.37;58.72
40872;BME280;26591;43.264;26.940;2023-02-12T02:57:38;99808.03;;;0.54;58.78
40872;BME280;26591;43.264;26.940;2023-02-12T03:00:15;99816.44;;;0.59;58.22
40872;BME280;26591;43.264;26.940;2023-02-12T03:02:47;99811.63;;;0.68;58.14
40872;BME280;26591;43.264;26.940;2023-02-12T03:05:27;99812.66;;;0.81;57.59
40872;BME280;26591;43.264;26.940;2023-02-12T03:07:56;99812.66;;;0.81;58.21
40872;BME280;26591;43.264;26.940;2023-02-12T03:10:37;99818.94;;;0.93;57.44
40872;BME280;26591;43.264;26.940;2023-02-12T03:13:23;99823.88;;;1.30;56.56
40872;BME280;26591;43.264;26.940;2023-02-12T03:15:59;99818.25;;;1.21;56.78
40872;BME280;26591;43.264;26.940;2023-02-12T03:18:32;99820.47;;;0.97;56.84
40872;BME280;26591;43.264;26.940;2023-02-12T03:21:08;99818.09;;;1.09;56.48
40872;BME280;26591;43.264;26.940;2023-02-12T03:23:41;99815.00;;;1.02;57.10
40872;BME280;26591;43.264;26.940;2023-02-12T03:26:13;99819.63;;;0.81;57.43
40872;BME280;26591;43.264;26.940;2023-02-12T03:28:42;99816.84;;;0.52;58.40
40872;BME280;26591;43.264;26.940;2023-02-12T03:34:03;99826.59;;;0.64;57.89
40872;BME280;26591;43.264;26.940;2023-02-12T03:36:47;99815.06;;;0.52;58.63
40872;BME280;26591;43.264;26.940;2023-02-12T03:39:29;99807.25;;;0.52;58.51
40872;BME280;26591;43.264;26.940;2023-02-12T03:50:14;99808.19;;;0.35;60.03
40872;BME280;26591;43.264;26.940;2023-02-12T03:52:42;99809.09;;;0.34;60.34
40872;BME280;26591;43.264;26.940;2023-02-12T03:55:08;99801.06;;;0.55;58.93
40872;BME280;26591;43.264;26.940;2023-02-12T03:57:40;99802.91;;;0.37;60.02
40872;BME280;26591;43.264;26.940;2023-02-12T04:00:17;99808.19;;;0.35;60.30
40872;BME280;26591;43.264;26.940;2023-02-12T04:02:43;99800.72;;;0.29;60.20
40872;BME280;26591;43.264;26.940;2023-02-12T04:05:18;99797.75;;;0.19;60.57
40872;BME280;26591;43.264;26.940;2023-02-12T04:07:44;99791.94;;;0.14;60.79
40872;BME280;26591;43.264;26.940;2023-02-12T04:10:10;99805.91;;;0.29;60.85
40872;BME280;26591;43.264;26.940;2023-02-12T04:12:56;99795.16;;;0.35;60.38
40872;BME280;26591;43.264;26.940;2023-02-12T04:21:19;99800.53;;;-0.02;62.14
40872;BME280;26591;43.264;26.940;2023-02-12T04:31:30;99836.03;;;0.17;61.54
40872;BME280;26591;43.264;26.940;2023-02-12T04:36:40;99842.41;;;0.11;62.16
40872;BME280;26591;43.264;26.940;2023-02-12T04:39:13;99841.47;;;0.12;62.05
40872;BME280;26591;43.264;26.940;2023-02-12T04:41:40;99849.53;;;0.41;61.74
40872;BME280;26591;43.264;26.940;2023-02-12T04:44:14;99848.91;;;0.36;62.02
40872;BME280;26591;43.264;26.940;2023-02-12T04:46:39;99844.91;;;0.47;61.10
40872;BME280;26591;43.264;26.940;2023-02-12T04:49:04;99840.84;;;0.25;62.40
40872;BME280;26591;43.264;26.940;2023-02-12T04:51:30;99850.09;;;0.30;61.95
40872;BME280;26591;43.264;26.940;2023-02-12T04:53:55;99854.59;;;0.60;61.09
40872;BME280;26591;43.264;26.940;2023-02-12T04:56:21;99860.53;;;0.47;61.69
40872;BME280;26591;43.264;26.940;2023-02-12T04:58:46;99865.06;;;0.59;61.55
40872;BME280;26591;43.264;26.940;2023-02-12T05:01:49;99854.13;;;0.36;61.32
40872;BME280;26591;43.264;26.940;2023-02-12T05:04:15;99861.72;;;0.23;62.36
40872;BME280;26591;43.264;26.940;2023-02-12T05:06:42;99861.16;;;0.18;62.92
40872;BME280;26591;43.264;26.940;2023-02-12T05:09:12;99858.31;;;0.39;61.64
40872;BME280;26591;43.264;26.940;2023-02-12T05:11:38;99869.50;;;0.41;62.42
40872;BME280;26591;43.264;26.940;2023-02-12T05:14:03;99867.00;;;0.55;62.12
40872;BME280;26591;43.264;26.940;2023-02-12T05:16:29;99855.50;;;0.43;62.16
40872;BME280;26591;43.264;26.940;2023-02-12T05:18:54;99856.06;;;0.33;61.91
40872;BME280;26591;43.264;26.940;2023-02-12T05:21:38;99852.09;;;0.25;62.73
40872;BME280;26591;43.264;26.940;2023-02-12T05:24:03;99861.81;;;0.22;62.33
40872;BME280;26591;43.264;26.940;2023-02-12T05:26:29;99877.88;;;0.30;61.78
40872;BME280;26591;43.264;26.940;2023-02-12T05:28:54;99870.63;;;0.37;62.32
40872;BME280;26591;43.264;26.940;2023-02-12T05:31:20;99885.53;;;0.33;62.01
40872;BME280;26591;43.264;26.940;2023-02-12T05:33:47;99886.28;;;0.35;63.01
40872;BME280;26591;43.264;26.940;2023-02-12T05:36:16;99896.19;;;0.28;62.40
40872;BME280;26591;43.264;26.940;2023-02-12T05:38:42;99897.09;;;0.27;62.40
40872;BME280;26591;43.264;26.940;2023-02-12T05:41:14;99902.69;;;0.37;62.71
40872;BME280;26591;43.264;26.940;2023-02-12T05:43:41;99914.47;;;0.44;62.04
40872;BME280;26591;43.264;26.940;2023-02-12T05:46:07;99912.47;;;0.50;61.72
40872;BME280;26591;43.264;26.940;2023-02-12T05:48:33;99912.91;;;0.58;61.62
40872;BME280;26591;43.264;26.940;2023-02-12T05:51:11;99916.78;;;0.67;61.72
40872;BME280;26591;43.264;26.940;2023-02-12T05:53:38;99908.41;;;0.44;62.50
40872;BME280;26591;43.264;26.940;2023-02-12T05:56:19;99907.66;;;0.42;62.06
40872;BME280;26591;43.264;26.940;2023-02-12T05:58:47;99918.19;;;0.56;61.63
40872;BME280;26591;43.264;26.940;2023-02-12T06:01:24;99925.59;;;0.64;62.01
40872;BME280;26591;43.264;26.940;2023-02-12T06:03:50;99928.72;;;0.71;61.42
40872;BME280;26591;43.264;26.940;2023-02-12T06:06:15;99930.81;;;0.64;61.55
40872;BME280;26591;43.264;26.940;2023-02-12T06:08:41;99926.63;;;0.78;60.68
40872;BME280;26591;43.264;26.940;2023-02-12T06:11:09;99933.19;;;0.69;60.76
40872;BME280;26591;43.264;26.940;2023-02-12T06:13:35;99949.94;;;0.81;61.08
40872;BME280;26591;43.264;26.940;2023-02-12T06:16:01;99946.41;;;0.82;60.64
40872;BME280;26591;43.264;26.940;2023-02-12T06:18:27;99937.56;;;0.68;61.24
40872;BME280;26591;43.264;26.940;2023-02-12T06:20:52;99947.28;;;0.98;59.93
40872;BME280;26591;43.264;26.940;2023-02-12T06:23:23;99953.78;;;1.07;59.98
40872;BME280;26591;43.264;26.940;2023-02-12T06:25:50;99951.41;;;1.02;59.49
40872;BME280;26591;43.264;26.940;2023-02-12T06:28:16;99954.75;;;1.04;60.33
40872;BME280;26591;43.264;26.940;2023-02-12T06:30:42;99953.16;;;1.02;60.31
40872;BME280;26591;43.264;26.940;2023-02-12T06:33:07;99962.00;;;0.99;60.04
40872;BME280;26591;43.264;26.940;2023-02-12T06:35:36;99967.16;;;1.17;59.52
40872;BME280;26591;43.264;26.940;2023-02-12T06:38:02;99973.72;;;1.24;58.62
40872;BME280;26591;43.264;26.940;2023-02-12T06:40:28;99984.22;;;1.39;58.26
40872;BME280;26591;43.264;26.940;2023-02-12T06:42:53;99983.91;;;1.45;58.36
40872;BME280;26591;43.264;26.940;2023-02-12T06:45:19;99991.81;;;1.59;58.22
40872;BME280;26591;43.264;26.940;2023-02-12T06:47:44;99987.00;;;1.67;58.30
40872;BME280;26591;43.264;26.940;2023-02-12T06:50:10;99999.22;;;1.67;58.08
40872;BME280;26591;43.264;26.940;2023-02-12T06:52:36;99987.22;;;1.79;57.80
40872;BME280;26591;43.264;26.940;2023-02-12T06:55:01;99986.22;;;1.81;57.83
40872;BME280;26591;43.264;26.940;2023-02-12T06:57:28;99978.19;;;2.01;56.51
40872;BME280;26591;43.264;26.940;2023-02-12T06:59:54;99988.75;;;1.83;56.73
40872;BME280;26591;43.264;26.940;2023-02-12T07:02:19;99995.97;;;2.24;57.65
40872;BME280;26591;43.264;26.940;2023-02-12T07:04:46;99992.88;;;2.18;56.42
40872;BME280;26591;43.264;26.940;2023-02-12T07:07:12;99997.78;;;2.38;55.82
40872;BME280;26591;43.264;26.940;2023-02-12T07:09:40;99985.91;;;2.18;56.20
40872;BME280;26591;43.264;26.940;2023-02-12T07:12:05;100001.47;;;1.89;56.83
40872;BME280;26591;43.264;26.940;2023-02-12T07:14:31;100011.44;;;2.13;56.29
40872;BME280;26591;43.264;26.940;2023-02-12T07:16:57;100025.69;;;1.91;56.97
40872;BME280;26591;43.264;26.940;2023-02-12T07:19:24;100023.00;;;1.77;57.30
40872;BME280;26591;43.264;26.940;2023-02-12T07:21:54;100020.47;;;2.07;56.26
40872;BME280;26591;43.264;26.940;2023-02-12T07:24:20;100013.81;;;2.32;56.84
40872;BME280;26591;43.264;26.940;2023-02-12T07:26:46;100012.59;;;2.38;57.29
40872;BME280;26591;43.264;26.940;2023-02-12T07:29:11;100006.03;;;2.16;55.88
40872;BME280;26591;43.264;26.940;2023-02-12T07:31:37;100015.50;;;2.33;55.23
40872;BME280;26591;43.264;26.940;2023-02-12T07:34:03;100016.69;;;2.27;55.21
40872;BME280;26591;43.264;26.940;2023-02-12T07:36:31;100024.19;;;2.34;57.18
40872;BME280;26591;43.264;26.940;2023-02-12T07:38:57;100023.53;;;2.44;54.94
40872;BME280;26591;43.264;26.940;2023-02-12T07:41:26;100035.16;;;2.55;53.74
40872;BME280;26591;43.264;26.940;2023-02-12T07:44:10;100029.97;;;2.84;53.85
40872;BME280;26591;43.264;26.940;2023-02-12T07:46:43;100023.53;;;2.89;53.57
40872;BME280;26591;43.264;26.940;2023-02-12T07:49:14;100032.44;;;4.40;62.33
40872;BME280;26591;43.264;26.940;2023-02-12T07:51:40;100031.94;;;4.07;52.09
40872;BME280;26591;43.264;26.940;2023-02-12T07:54:06;100040.59;;;3.95;51.72
40872;BME280;26591;43.264;26.940;2023-02-12T07:56:34;100042.31;;;3.81;51.17
40872;BME280;26591;43.264;26.940;2023-02-12T07:59:02;100040.63;;;3.39;51.52
40872;BME280;26591;43.264;26.940;2023-02-12T08:01:37;100045.75;;;3.40;51.85
40872;BME280;26591;43.264;26.940;2023-02-12T08:04:08;100044.97;;;3.94;50.86
40872;BME280;26591;43.264;26.940;2023-02-12T08:06:36;100044.38;;;3.76;51.63
40872;BME280;26591;43.264;26.940;2023-02-12T08:09:05;100046.03;;;3.92;50.61
40872;BME280;26591;43.264;26.940;2023-02-12T08:11:31;100045.78;;;4.09;50.52
40872;BME280;26591;43.264;26.940;2023-02-12T08:13:58;100047.91;;;4.30;50.72
40872;BME280;26591;43.264;26.940;2023-02-12T08:16:26;100060.63;;;4.36;50.38
40872;BME280;26591;43.264;26.940;2023-02-12T08:18:52;100054.75;;;4.33;50.43
40872;BME280;26591;43.264;26.940;2023-02-12T08:21:23;100048.53;;;4.21;50.59
40872;BME280;26591;43.264;26.940;2023-02-12T08:23:49;100059.34;;;4.29;50.67
40872;BME280;26591;43.264;26.940;2023-02-12T08:26:23;100070.50;;;4.46;50.12
40872;BME280;26591;43.264;26.940;2023-02-12T08:28:55;100069.25;;;4.51;50.82
40872;BME280;26591;43.264;26.940;2023-02-12T08:31:25;100064.38;;;4.32;50.15
40872;BME280;26591;43.264;26.940;2023-02-12T08:33:52;100076.44;;;4.35;50.36
40872;BME280;26591;43.264;26.940;2023-02-12T08:36:22;100081.19;;;4.42;50.31
40872;BME280;26591;43.264;26.940;2023-02-12T08:38:48;100087.16;;;4.32;50.55
40872;BME280;26591;43.264;26.940;2023-02-12T08:41:20;100088.53;;;4.37;50.47
40872;BME280;26591;43.264;26.940;2023-02-12T08:43:46;100098.06;;;4.38;50.62
40872;BME280;26591;43.264;26.940;2023-02-12T08:46:19;100096.31;;;4.52;50.71
40872;BME280;26591;43.264;26.940;2023-02-12T08:48:45;100091.75;;;4.68;50.48
40872;BME280;26591;43.264;26.940;2023-02-12T08:51:21;100090.59;;;4.72;49.51
40872;BME280;26591;43.264;26.940;2023-02-12T08:53:50;100104.78;;;4.42;50.52
40872;BME280;26591;43.264;26.940;2023-02-12T08:56:16;100100.56;;;4.80;49.61
40872;BME280;26591;43.264;26.940;2023-02-12T08:58:42;100096.41;;;4.50;49.45
40872;BME280;26591;43.264;26.940;2023-02-12T09:01:12;100097.47;;;4.48;49.22
40872;BME280;26591;43.264;26.940;2023-02-12T09:03:38;100098.44;;;4.72;48.36
40872;BME280;26591;43.264;26.940;2023-02-12T09:06:05;100091.44;;;4.73;48.37
40872;BME280;26591;43.264;26.940;2023-02-12T09:08:31;100092.91;;;4.90;48.99
40872;BME280;26591;43.264;26.940;2023-02-12T09:10:57;100089.47;;;5.02;48.21
40872;BME280;26591;43.264;26.940;2023-02-12T09:13:23;100088.50;;;5.03;48.32
40872;BME280;26591;43.264;26.940;2023-02-12T09:15:48;100083.38;;;5.15;47.71
40872;BME280;26591;43.264;26.940;2023-02-12T09:18:14;100095.78;;;5.13;48.10
40872;BME280;26591;43.264;26.940;2023-02-12T09:20:42;100098.78;;;5.32;47.71
40872;BME280;26591;43.264;26.940;2023-02-12T09:23:10;100096.69;;;5.25;47.94
40872;BME280;26591;43.264;26.940;2023-02-12T09:25:44;100102.03;;;5.49;47.85
40872;BME280;26591;43.264;26.940;2023-02-12T09:28:12;100095.91;;;5.61;47.26
40872;BME280;26591;43.264;26.940;2023-02-12T09:30:38;100099.50;;;5.60;47.08
40872;BME280;26591;43.264;26.940;2023-02-12T09:33:05;100113.22;;;5.77;47.70
40872;BME280;26591;43.264;26.940;2023-02-12T09:35:34;100112.94;;;5.69;46.79
40872;BME280;26591;43.264;26.940;2023-02-12T09:38:00;100115.91;;;5.64;47.26
40872;BME280;26591;43.264;26.940;2023-02-12T09:43:52;100112.34;;;5.39;47.11
40872;BME280;26591;43.264;26.940;2023-02-12T09:49:08;100111.72;;;5.23;48.10
40872;BME280;26591;43.264;26.940;2023-02-12T09:51:37;100124.94;;;5.47;48.16
40872;BME280;26591;43.264;26.940;2023-02-12T09:54:13;100124.72;;;5.37;47.67
40872;BME280;26591;43.264;26.940;2023-02-12T09:56:42;100128.84;;;5.28;47.42
40872;BME280;26591;43.264;26.940;2023-02-12T09:59:13;100126.22;;;5.28;48.02
40872;BME280;26591;43.264;26.940;2023-02-12T10:01:42;100134.47;;;5.09;48.14
40872;BME280;26591;43.264;26.940;2023-02-12T10:04:07;100140.72;;;5.34;47.36
40872;BME280;26591;43.264;26.940;2023-02-12T10:06:41;100140.69;;;5.60;47.26
40872;BME280;26591;43.264;26.940;2023-02-12T10:15:26;100143.00;;;5.39;48.18
40872;BME280;26591;43.264;26.940;2023-02-12T10:23:36;100143.53;;;5.18;48.31
40872;BME280;26591;43.264;26.940;2023-02-12T10:26:29;100146.69;;;5.23;47.97
40872;BME280;26591;43.264;26.940;2023-02-12T10:29:00;100151.16;;;4.95;48.03
40872;BME280;26591;43.264;26.940;2023-02-12T10:31:39;100146.41;;;4.74;48.93
40872;BME280;26591;43.264;26.940;2023-02-12T10:34:19;100139.97;;;4.66;49.24
40872;BME280;26591;43.264;26.940;2023-02-12T10:36:50;100141.78;;;4.65;49.88
40872;BME280;26591;43.264;26.940;2023-02-12T10:39:25;100147.38;;;4.86;49.42
40872;BME280;26591;43.264;26.940;2023-02-12T10:42:23;100138.47;;;5.02;49.87
40872;BME280;26591;43.264;26.940;2023-02-12T10:44:50;100156.06;;;4.87;49.78
40872;BME280;26591;43.264;26.940;2023-02-12T10:47:35;100157.44;;;4.93;50.44
40872;BME280;26591;43.264;26.940;2023-02-12T10:50:01;100154.63;;;4.83;50.14
40872;BME280;26591;43.264;26.940;2023-02-12T10:52:39;100154.69;;;4.68;50.75
40872;BME280;26591;43.264;26.940;2023-02-12T10:55:29;100158.09;;;4.56;51.19
40872;BME280;26591;43.264;26.940;2023-02-12T10:57:56;100157.75;;;4.75;51.38
40872;BME280;26591;43.264;26.940;2023-02-12T11:05:42;100169.84;;;4.91;49.46
40872;BME280;26591;43.264;26.940;2023-02-12T11:10:52;100174.22;;;4.77;50.03
40872;BME280;26591;43.264;26.940;2023-02-12T11:13:27;100179.03;;;4.83;50.20
40872;BME280;26591;43.264;26.940;2023-02-12T11:15:58;100180.78;;;4.70;50.82
40872;BME280;26591;43.264;26.940;2023-02-12T11:18:30;100184.09;;;4.59;50.52
40872;BME280;26591;43.264;26.940;2023-02-12T11:31:22;100182.44;;;4.31;53.80
40872;BME280;26591;43.264;26.940;2023-02-12T11:34:14;100178.84;;;4.46;53.67
40872;BME280;26591;43.264;26.940;2023-02-12T11:36:45;100186.41;;;4.51;54.18
40872;BME280;26591;43.264;26.940;2023-02-12T11:39:35;100184.28;;;4.70;53.13
40872;BME280;26591;43.264;26.940;2023-02-12T11:42:13;100183.03;;;4.76;53.39
40872;BME280;26591;43.264;26.940;2023-02-12T11:44:42;100175.25;;;4.74;52.45
40872;BME280;26591;43.264;26.940;2023-02-12T11:47:16;100177.28;;;4.97;51.76
40872;BME280;26591;43.264;26.940;2023-02-12T11:52:24;100164.56;;;4.78;52.94
40872;BME280;26591;43.264;26.940;2023-02-12T11:54:54;100177.72;;;5.03;52.85
40872;BME280;26591;43.264;26.940;2023-02-12T12:02:38;100177.25;;;5.24;52.70
40872;BME280;26591;43.264;26.940;2023-02-12T12:05:12;100178.91;;;4.99;51.97
40872;BME280;26591;43.264;26.940;2023-02-12T12:07:44;100189.47;;;4.98;51.95
40872;BME280;26591;43.264;26.940;2023-02-12T12:10:30;100185.88;;;4.86;52.89
40872;BME280;26591;43.264;26.940;2023-02-12T12:13:01;100178.25;;;5.09;52.39
40872;BME280;26591;43.264;26.940;2023-02-12T12:15:35;100178.47;;;5.06;52.46
40872;BME280;26591;43.264;26.940;2023-02-12T12:18:46;100180.78;;;5.10;52.50
40872;BME280;26591;43.264;26.940;2023-02-12T12:21:36;100175.75;;;5.07;52.44
40872;BME280;26591;43.264;26.940;2023-02-12T12:24:25;100187.94;;;5.21;52.53
40872;BME280;26591;43.264;26.940;2023-02-12T12:26:59;100190.13;;;5.14;52.46
40872;BME280;26591;43.264;26.940;2023-02-12T12:29:44;100185.00;;;5.26;52.47
40872;BME280;26591;43.264;26.940;2023-02-12T12:32:15;100188.09;;;4.92;53.26
40872;BME280;26591;43.264;26.940;2023-02-12T12:34:43;100189.22;;;4.75;53.63
40872;BME280;26591;43.264;26.940;2023-02-12T12:59:37;100214.84;;;4.15;54.88
40872;BME280;26591;43.264;26.940;2023-02-12T13:08:02;100232.97;;;4.33;54.92
40872;BME280;26591;43.264;26.940;2023-02-12T13:10:39;100237.81;;;4.39;55.64
40872;BME280;26591;43.264;26.940;2023-02-12T13:13:37;100242.19;;;4.53;57.36
40872;BME280;26591;43.264;26.940;2023-02-12T13:21:45;100271.84;;;4.95;60.77
40872;BME280;26591;43.264;26.940;2023-02-12T13:24:28;100275.25;;;5.10;55.69
40872;BME280;26591;43.264;26.940;2023-02-12T13:27:12;100277.31;;;5.32;55.73
40872;BME280;26591;43.264;26.940;2023-02-12T13:29:53;100282.28;;;4.82;56.58
40872;BME280;26591;43.264;26.940;2023-02-12T13:34:53;100295.56;;;4.52;59.87
40872;BME280;26591;43.264;26.940;2023-02-12T13:37:29;100308.06;;;4.34;60.73
40872;BME280;26591;43.264;26.940;2023-02-12T13:40:02;100302.06;;;4.03;62.68
40872;BME280;26591;43.264;26.940;2023-02-12T13:45:39;100312.44;;;3.90;63.34
40872;BME280;26591;43.264;26.940;2023-02-12T13:53:17;100323.09;;;4.01;63.35
40872;BME280;26591;43.264;26.940;2023-02-12T14:03:29;100341.16;;;4.06;63.45
40872;BME280;26591;43.264;26.940;2023-02-12T14:06:17;100338.81;;;4.01;63.84
40872;BME280;26591;43.264;26.940;2023-02-12T14:08:50;100343.41;;;3.97;63.33
40872;BME280;26591;43.264;26.940;2023-02-12T14:11:19;100334.31;;;3.89;63.75
40872;BME280;26591;43.264;26.940;2023-02-12T14:14:01;100336.63;;;3.79;64.41
40872;BME280;26591;43.264;26.940;2023-02-12T14:21:58;100349.25;;;3.72;65.20
40872;BME280;26591;43.264;26.940;2023-02-12T14:24:46;100350.56;;;3.79;65.30
40872;BME280;26591;43.264;26.940;2023-02-12T14:27:28;100361.59;;;3.85;65.17
40872;BME280;26591;43.264;26.940;2023-02-12T14:38:00;100370.31;;;3.85;65.98
40872;BME280;26591;43.264;26.940;2023-02-12T14:43:03;100384.31;;;3.70;66.69
40872;BME280;26591;43.264;26.940;2023-02-12T14:45:34;100383.09;;;3.75;66.90
40872;BME280;26591;43.264;26.940;2023-02-12T14:48:02;100388.72;;;3.84;66.73
40872;BME280;26591;43.264;26.940;2023-02-12T14:50:36;100395.78;;;3.97;66.19
40872;BME280;26591;43.264;26.940;2023-02-12T14:53:05;100399.94;;;4.02;65.61
40872;BME280;26591;43.264;26.940;2023-02-12T14:55:33;100402.53;;;3.71;66.62
40872;BME280;26591;43.264;26.940;2023-02-12T14:58:04;100402.72;;;3.68;66.08
40872;BME280;26591;43.264;26.940;2023-02-12T15:00:39;100398.44;;;3.51;67.10
40872;BME280;26591;43.264;26.940;2023-02-12T15:05:42;100411.16;;;3.73;66.04
40872;BME280;26591;43.264;26.940;2023-02-12T15:08:52;100427.00;;;3.86;65.98
40872;BME280;26591;43.264;26.940;2023-02-12T15:14:14;100422.00;;;3.67;65.86
40872;BME280;26591;43.264;26.940;2023-02-12T15:16:58;100434.72;;;3.73;65.72
40872;BME280;26591;43.264;26.940;2023-02-12T15:22:41;100434.41;;;3.31;66.27
40872;BME280;26591;43.264;26.940;2023-02-12T15:25:28;100443.91;;;3.34;66.44
40872;BME280;26591;43.264;26.940;2023-02-12T15:30:27;100444.69;;;3.66;65.77
40872;BME280;26591;43.264;26.940;2023-02-12T15:32:59;100456.69;;;3.55;64.82
40872;BME280;26591;43.264;26.940;2023-02-12T15:35:28;100471.59;;;3.38;66.07
40872;BME280;26591;43.264;26.940;2023-02-12T15:37:56;100474.38;;;3.35;66.26
40872;BME280;26591;43.264;26.940;2023-02-12T15:40:24;100474.53;;;3.32;65.73
40872;BME280;26591;43.264;26.940;2023-02-12T15:42:55;100471.41;;;3.41;65.25
40872;BME280;26591;43.264;26.940;2023-02-12T15:45:26;100474.28;;;3.20;65.82
40872;BME280;26591;43.264;26.940;2023-02-12T15:48:11;100481.22;;;3.22;66.25
40872;BME280;26591;43.264;26.940;2023-02-12T15:50:52;100489.78;;;3.24;65.86
40872;BME280;26591;43.264;26.940;2023-02-12T15:53:21;100501.38;;;3.19;65.75
40872;BME280;26591;43.264;26.940;2023-02-12T15:55:48;100508.19;;;3.22;65.87
40872;BME280;26591;43.264;26.940;2023-02-12T15:58:23;100516.16;;;3.20;65.98
40872;BME280;26591;43.264;26.940;2023-02-12T16:00:50;100517.00;;;3.37;65.25
40872;BME280;26591;43.264;26.940;2023-02-12T16:05:49;100528.16;;;3.57;64.93